Time;durP1;ratioP1;P1;durP2;ratioP2;P2;SDS_P1;SDS_P2;PMS_P1;PMS_P2;Temp;Humidity;BMP_temperature;BMP_pressure;BME280_temperature;BME280_humidity;BME280_pressure;Samples;Min_cycle;Max_cycle;Signal;HPM_P1;HPM_P2
2024/01/26 00:00:50;;;;;;;23.93;11.20;;;10.30;1.00;;;;;;5045710;28;20758;-80
2024/01/26 00:03:16;;;;;;;22.37;12.20;;;10.30;1.00;;;;;;5039449;28;20177;-78
2024/01/26 00:05:41;;;;;;;23.27;13.00;;;10.30;1.00;;;;;;5050013;28;20177;-78
2024/01/26 00:08:07;;;;;;;19.67;11.20;;;10.30;1.00;;;;;;5034669;28;20675;-78
2024/01/26 00:10:32;;;;;;;21.73;11.70;;;10.30;1.00;;;;;;5034731;28;20208;-78
2024/01/26 00:12:58;;;;;;;31.90;12.63;;;10.20;1.00;;;;;;5032843;28;20180;-76
2024/01/26 00:15:24;;;;;;;24.23;11.60;;;10.30;1.00;;;;;;5033429;28;20182;-77
2024/01/26 00:17:49;;;;;;;20.37;11.27;;;10.20;1.00;;;;;;5041629;28;20193;-81
2024/01/26 00:20:14;;;;;;;22.47;11.90;;;10.50;1.00;;;;;;5035581;28;20260;-78
2024/01/26 00:22:40;;;;;;;26.83;13.30;;;10.20;1.00;;;;;;5039364;28;20177;-77
2024/01/26 00:25:06;;;;;;;29.50;12.30;;;10.20;1.00;;;;;;5032109;28;20182;-82
2024/01/26 00:27:31;;;;;;;27.83;12.47;;;10.20;1.00;;;;;;5046979;28;20555;-77
2024/01/26 00:29:57;;;;;;;22.90;11.77;;;10.20;1.00;;;;;;5044241;28;20672;-77
2024/01/26 00:32:22;;;;;;;24.37;12.87;;;10.20;1.00;;;;;;5035451;28;20267;-77
2024/01/26 00:34:48;;;;;;;29.43;13.00;;;10.20;1.00;;;;;;5033679;28;20521;-80
2024/01/26 00:37:13;;;;;;;27.80;13.23;;;10.20;1.00;;;;;;5040144;28;20177;-76
2024/01/26 00:39:39;;;;;;;26.50;12.80;;;10.20;1.00;;;;;;5041514;28;20230;-77
2024/01/26 00:42:04;;;;;;;24.93;11.70;;;10.20;1.00;;;;;;5035046;28;20178;-80
2024/01/26 00:44:30;;;;;;;30.10;14.30;;;10.20;1.00;;;;;;5045725;28;20671;-77
2024/01/26 00:46:55;;;;;;;27.23;13.40;;;10.20;1.00;;;;;;5033668;28;20236;-77
2024/01/26 00:49:21;;;;;;;26.17;13.90;;;10.20;1.00;;;;;;5037741;28;20579;-78
2024/01/26 00:51:47;;;;;;;24.93;12.60;;;10.20;1.00;;;;;;5037157;28;20193;-77
2024/01/26 00:54:13;;;;;;;25.63;13.70;;;10.20;1.00;;;;;;5037985;28;20228;-76
2024/01/26 00:56:38;;;;;;;24.67;12.97;;;10.20;1.00;;;;;;5035729;28;20486;-77
2024/01/26 00:59:04;;;;;;;31.90;13.50;;;10.20;1.00;;;;;;5034176;28;20250;-76
2024/01/26 01:01:29;;;;;;;27.40;13.47;;;10.20;1.00;;;;;;5038162;28;20308;-77
2024/01/26 01:03:55;;;;;;;29.90;13.67;;;10.20;1.00;;;;;;5041048;28;20235;-77
2024/01/26 01:06:21;;;;;;;25.80;13.40;;;10.20;1.00;;;;;;5032091;28;20295;-79
2024/01/26 01:08:47;;;;;;;27.20;14.23;;;10.30;1.00;;;;;;5034939;28;20206;-78
2024/01/26 01:11:13;;;;;;;33.00;13.40;;;10.30;1.00;;;;;;5029534;28;20676;-77
2024/01/26 01:13:38;;;;;;;30.30;13.90;;;10.30;1.00;;;;;;5031958;28;20413;-76
2024/01/26 01:16:04;;;;;;;29.90;13.90;;;10.20;1.00;;;;;;5036712;28;20176;-77
2024/01/26 01:18:30;;;;;;;29.53;14.37;;;10.20;1.00;;;;;;5041244;28;20193;-79
2024/01/26 01:20:56;;;;;;;27.60;13.50;;;10.20;1.00;;;;;;5041400;28;20197;-78
2024/01/26 01:23:21;;;;;;;30.70;13.77;;;10.20;1.00;;;;;;5028813;28;20478;-75
2024/01/26 01:25:47;;;;;;;32.80;14.53;;;10.20;1.00;;;;;;5034060;28;20262;-77
2024/01/26 01:28:12;;;;;;;28.03;14.23;;;10.20;1.00;;;;;;5039107;28;20200;-79
2024/01/26 01:30:38;;;;;;;34.90;13.47;;;10.20;1.00;;;;;;5040931;28;20217;-78
2024/01/26 01:33:04;;;;;;;25.50;13.80;;;10.20;1.00;;;;;;5027948;28;20177;-79
2024/01/26 01:35:30;;;;;;;30.17;13.73;;;10.30;1.00;;;;;;5039731;28;20276;-77
2024/01/26 01:37:55;;;;;;;23.50;12.67;;;10.20;1.00;;;;;;5042492;28;20507;-76
2024/01/26 01:40:21;;;;;;;28.63;13.23;;;10.30;1.00;;;;;;5029121;28;20671;-78
2024/01/26 01:42:47;;;;;;;24.80;13.73;;;10.30;1.00;;;;;;5039401;28;20705;-77
2024/01/26 01:45:13;;;;;;;28.10;13.77;;;10.20;1.00;;;;;;5049685;28;20614;-77
2024/01/26 01:47:42;;;;;;;26.83;13.00;;;10.20;1.00;;;;;;5041689;28;20239;-80
2024/01/26 01:50:08;;;;;;;20.10;11.20;;;10.20;1.00;;;;;;5040891;28;20523;-77
2024/01/26 01:52:39;;;;;;;25.50;12.77;;;10.20;1.00;;;;;;5038072;28;20511;-78
2024/01/26 01:55:07;;;;;;;22.27;12.40;;;10.20;1.00;;;;;;5045977;28;20404;-79
2024/01/26 01:57:34;;;;;;;26.27;12.90;;;10.20;1.00;;;;;;5049536;28;20423;-77
2024/01/26 02:00:01;;;;;;;20.73;11.53;;;10.20;1.00;;;;;;5034595;28;20431;-84
2024/01/26 02:02:27;;;;;;;24.57;12.93;;;10.20;1.00;;;;;;5048481;28;20937;-79
2024/01/26 02:04:52;;;;;;;23.73;12.40;;;10.20;1.00;;;;;;5044220;28;20429;-76
2024/01/26 02:07:18;;;;;;;23.60;12.20;;;10.20;1.00;;;;;;5042927;28;20223;-80
2024/01/26 02:09:44;;;;;;;22.40;11.53;;;10.20;1.00;;;;;;5038575;28;20205;-77
2024/01/26 02:12:09;;;;;;;23.77;11.50;;;10.20;1.00;;;;;;5037715;28;20659;-77
2024/01/26 02:14:35;;;;;;;24.80;12.37;;;10.20;1.00;;;;;;5042641;28;20237;-77
2024/01/26 02:17:01;;;;;;;19.40;11.50;;;10.30;1.00;;;;;;5036369;28;20724;-78
2024/01/26 02:19:29;;;;;;;21.57;11.17;;;10.20;1.00;;;;;;5038557;28;20170;-77
2024/01/26 02:21:55;;;;;;;21.10;11.53;;;10.20;1.00;;;;;;5039933;28;20428;-77
2024/01/26 02:24:20;;;;;;;20.43;10.97;;;10.20;1.00;;;;;;5033042;28;20778;-77
2024/01/26 02:26:46;;;;;;;21.03;11.23;;;10.20;1.00;;;;;;5040231;28;20190;-78
2024/01/26 02:29:12;;;;;;;17.77;10.27;;;10.20;1.00;;;;;;5038853;28;20205;-77
2024/01/26 02:31:37;;;;;;;16.93;10.30;;;10.20;1.00;;;;;;5040783;28;20198;-77
2024/01/26 02:34:03;;;;;;;17.50;9.97;;;10.20;1.00;;;;;;5052081;28;20322;-77
2024/01/26 02:36:31;;;;;;;17.50;10.10;;;10.20;1.00;;;;;;5043681;28;20712;-79
2024/01/26 02:38:56;;;;;;;22.97;9.87;;;10.20;1.00;;;;;;5045377;28;20260;-77
2024/01/26 02:41:22;;;;;;;14.83;9.10;;;10.20;1.00;;;;;;5042780;28;21021;-82
2024/01/26 02:43:48;;;;;;;16.57;9.00;;;10.20;1.00;;;;;;5041774;28;20812;-79
2024/01/26 02:46:13;;;;;;;15.73;8.90;;;10.30;1.00;;;;;;5045353;28;20185;-79
2024/01/26 02:48:39;;;;;;;14.80;8.57;;;10.30;1.00;;;;;;5042369;28;20208;-77
2024/01/26 02:51:05;;;;;;;13.87;8.30;;;10.20;1.00;;;;;;5039800;28;20723;-78
2024/01/26 02:53:31;;;;;;;18.10;8.57;;;10.30;1.00;;;;;;5039778;28;20192;-78
2024/01/26 02:55:56;;;;;;;11.70;7.00;;;10.30;1.00;;;;;;5039616;28;20212;-80
2024/01/26 02:58:22;;;;;;;12.47;7.13;;;10.30;1.00;;;;;;5046755;28;20177;-78
2024/01/26 03:00:48;;;;;;;11.63;6.90;;;10.30;1.00;;;;;;5040995;28;20545;-77
2024/01/26 03:03:14;;;;;;;13.57;7.40;;;10.30;1.00;;;;;;5032255;28;20467;-77
2024/01/26 03:05:40;;;;;;;16.47;6.90;;;10.30;1.00;;;;;;5039396;28;20181;-77
2024/01/26 03:08:06;;;;;;;12.50;6.83;;;10.30;1.00;;;;;;5033113;28;20197;-77
2024/01/26 03:10:32;;;;;;;12.20;6.50;;;10.20;1.00;;;;;;5031510;28;20435;-78
2024/01/26 03:12:57;;;;;;;10.33;6.57;;;10.20;1.00;;;;;;5031234;28;20412;-77
2024/01/26 03:15:23;;;;;;;14.73;6.83;;;10.20;1.00;;;;;;5031520;28;20170;-77
2024/01/26 03:17:48;;;;;;;10.30;6.80;;;10.20;1.00;;;;;;5040364;28;20475;-78
2024/01/26 03:20:14;;;;;;;10.63;6.00;;;10.20;1.00;;;;;;5030882;28;20208;-79
2024/01/26 03:22:40;;;;;;;9.23;6.90;;;10.20;1.00;;;;;;5031148;28;20238;-77
2024/01/26 03:25:06;;;;;;;9.20;6.50;;;10.30;1.00;;;;;;5043734;28;20188;-80
2024/01/26 03:27:32;;;;;;;11.07;7.53;;;10.30;1.00;;;;;;5039472;28;20173;-80
2024/01/26 03:29:57;;;;;;;12.93;6.50;;;10.30;1.00;;;;;;5043610;28;20447;-77
2024/01/26 03:32:23;;;;;;;11.70;7.07;;;10.30;1.00;;;;;;5042158;28;20559;-77
2024/01/26 03:34:49;;;;;;;10.73;6.77;;;10.30;1.00;;;;;;5039621;28;20230;-78
2024/01/26 03:37:15;;;;;;;12.30;6.60;;;10.30;1.00;;;;;;5035300;28;20169;-77
2024/01/26 03:39:40;;;;;;;10.73;6.93;;;10.20;1.00;;;;;;5042324;28;20417;-80
2024/01/26 03:42:10;;;;;;;12.30;7.20;;;10.20;1.00;;;;;;5047658;28;20186;-81
2024/01/26 03:44:36;;;;;;;11.80;7.13;;;9.00;1.00;;;;;;5046125;28;20193;-79
2024/01/26 03:47:01;;;;;;;11.13;6.40;;;10.10;1.00;;;;;;5040984;28;20436;-77
2024/01/26 03:49:27;;;;;;;10.17;6.27;;;10.10;1.00;;;;;;5042234;28;20198;-78
2024/01/26 03:51:52;;;;;;;10.17;6.47;;;10.10;1.00;;;;;;5040265;28;20201;-77
2024/01/26 03:54:18;;;;;;;10.77;6.50;;;10.00;1.00;;;;;;5044103;28;20605;-77
2024/01/26 03:56:43;;;;;;;7.73;6.13;;;10.10;1.00;;;;;;5040831;28;20174;-80
2024/01/26 03:59:09;;;;;;;10.30;5.90;;;10.00;1.00;;;;;;5045669;28;20570;-77
2024/01/26 04:01:34;;;;;;;15.00;6.63;;;10.10;1.00;;;;;;5041223;28;20213;-78
2024/01/26 04:04:00;;;;;;;8.73;6.40;;;10.10;1.00;;;;;;5048970;28;20801;-79
2024/01/26 04:06:26;;;;;;;10.43;6.53;;;10.20;1.00;;;;;;5039517;28;20205;-79
2024/01/26 04:08:51;;;;;;;14.40;7.37;;;10.20;1.00;;;;;;5030266;28;20498;-76
2024/01/26 04:11:17;;;;;;;7.50;5.67;;;10.20;1.00;;;;;;5045564;28;20463;-77
2024/01/26 04:13:42;;;;;;;11.37;6.50;;;10.20;1.00;;;;;;5037853;28;20687;-77
2024/01/26 04:16:08;;;;;;;9.93;6.63;;;10.20;1.00;;;;;;5045655;28;20178;-79
2024/01/26 04:18:34;;;;;;;10.30;6.43;;;10.20;1.00;;;;;;5029710;28;20652;-76
2024/01/26 04:20:59;;;;;;;9.67;6.10;;;10.20;1.00;;;;;;5040657;28;20292;-77
2024/01/26 04:23:25;;;;;;;8.70;5.60;;;10.20;1.00;;;;;;5036298;28;20578;-78
2024/01/26 04:25:50;;;;;;;6.67;5.03;;;10.10;1.00;;;;;;5048663;28;20237;-79
2024/01/26 04:28:16;;;;;;;9.03;5.40;;;10.10;1.00;;;;;;5039565;28;20193;-77
2024/01/26 04:30:43;;;;;;;8.20;5.10;;;10.00;1.00;;;;;;5036322;28;20193;-76
2024/01/26 04:33:08;;;;;;;7.03;5.07;;;10.00;1.00;;;;;;5036717;28;20317;-77
2024/01/26 04:35:34;;;;;;;8.80;4.70;;;10.00;1.00;;;;;;5036870;28;20507;-79
2024/01/26 04:37:59;;;;;;;7.27;5.20;;;9.90;1.00;;;;;;5045221;28;20216;-77
2024/01/26 04:40:25;;;;;;;7.87;4.70;;;9.90;1.00;;;;;;5039925;28;20192;-79
2024/01/26 04:42:50;;;;;;;7.23;4.70;;;9.90;1.00;;;;;;5041736;28;20173;-77
2024/01/26 04:45:16;;;;;;;7.40;4.37;;;9.90;1.00;;;;;;5039284;28;20193;-77
2024/01/26 04:47:42;;;;;;;7.17;4.60;;;9.90;1.00;;;;;;5036681;28;20672;-79
2024/01/26 04:50:09;;;;;;;6.90;4.50;;;9.90;1.00;;;;;;5037366;28;20205;-78
2024/01/26 04:52:34;;;;;;;7.10;4.60;;;9.90;1.00;;;;;;5036807;28;20412;-78
2024/01/26 04:55:00;;;;;;;6.80;4.20;;;9.80;1.00;;;;;;5048882;28;20937;-79
2024/01/26 04:57:26;;;;;;;6.30;4.27;;;9.80;1.00;;;;;;5042231;28;20249;-77
2024/01/26 04:59:52;;;;;;;6.47;4.27;;;9.80;1.00;;;;;;5046489;28;20650;-77
2024/01/26 05:02:17;;;;;;;7.40;4.40;;;11.30;1.00;;;;;;5036042;28;20173;-77
2024/01/26 05:04:43;;;;;;;6.93;4.00;;;9.90;1.00;;;;;;5040823;28;20423;-78
2024/01/26 05:07:08;;;;;;;4.20;3.10;;;9.80;1.00;;;;;;5043013;28;20177;-80
2024/01/26 05:09:34;;;;;;;5.60;3.63;;;;;;;;;;5043966;28;20231;-76
2024/01/26 05:12:00;;;;;;;7.40;4.50;;;9.90;1.00;;;;;;5034414;28;20185;-77
2024/01/26 05:14:25;;;;;;;5.10;3.53;;;9.80;1.00;;;;;;5034821;28;20416;-77
2024/01/26 05:16:51;;;;;;;6.50;3.40;;;9.80;1.00;;;;;;5036579;28;20209;-77
2024/01/26 05:19:16;;;;;;;5.33;4.30;;;9.80;1.00;;;;;;5035699;28;20207;-77
2024/01/26 05:21:42;;;;;;;5.37;3.00;;;9.80;1.00;;;;;;5045182;28;20307;-79
2024/01/26 05:24:08;;;;;;;4.00;2.80;;;;;;;;;;5041778;28;20198;-78
2024/01/26 05:26:37;;;;;;;5.10;2.80;;;9.80;1.00;;;;;;5037435;28;20189;-77
2024/01/26 05:29:03;;;;;;;5.40;2.90;;;9.80;1.00;;;;;;5041579;28;20861;-77
2024/01/26 05:31:28;;;;;;;5.63;2.80;;;9.80;1.00;;;;;;5041789;28;20440;-76
2024/01/26 05:33:54;;;;;;;3.07;2.77;;;9.80;1.00;;;;;;5036889;28;20189;-77
2024/01/26 05:36:20;;;;;;;4.40;3.07;;;9.80;1.00;;;;;;5036045;28;20170;-79
2024/01/26 05:38:45;;;;;;;4.07;3.10;;;9.80;1.00;;;;;;5038442;28;20185;-76
2024/01/26 05:41:12;;;;;;;6.33;3.40;;;9.80;1.00;;;;;;5031959;28;20193;-77
2024/01/26 05:43:38;;;;;;;4.37;2.80;;;9.90;1.00;;;;;;5036227;28;20185;-78
2024/01/26 05:46:03;;;;;;;4.37;3.00;;;9.90;1.00;;;;;;5034291;28;20918;-79
2024/01/26 05:48:29;;;;;;;4.30;3.10;;;9.90;1.00;;;;;;5027426;28;20547;-75
2024/01/26 05:50:54;;;;;;;4.53;3.10;;;9.90;1.00;;;;;;5046201;28;20587;-78
2024/01/26 05:53:20;;;;;;;5.37;3.20;;;9.90;1.00;;;;;;5042308;28;20182;-76
2024/01/26 05:55:45;;;;;;;4.40;3.10;;;9.80;1.00;;;;;;5028766;28;20669;-76
2024/01/26 05:58:11;;;;;;;7.97;3.20;;;9.80;1.00;;;;;;5039146;28;20197;-77
2024/01/26 06:00:37;;;;;;;6.50;3.53;;;9.90;1.00;;;;;;5029467;28;20208;-78
2024/01/26 06:03:03;;;;;;;4.87;3.50;;;9.90;1.00;;;;;;5038915;28;20420;-78
2024/01/26 06:05:28;;;;;;;6.00;3.37;;;9.90;1.00;;;;;;5038959;28;20178;-77
2024/01/26 06:07:56;;;;;;;4.17;3.20;;;9.90;1.00;;;;;;5035944;28;20226;-79
2024/01/26 06:10:21;;;;;;;5.57;3.37;;;9.90;1.00;;;;;;5046311;28;20327;-78
2024/01/26 06:12:47;;;;;;;4.33;2.87;;;9.90;1.00;;;;;;5047436;28;20494;-77
2024/01/26 06:15:13;;;;;;;4.33;2.80;;;9.90;1.00;;;;;;5030304;28;20203;-79
2024/01/26 06:17:39;;;;;;;3.70;3.20;;;9.90;1.00;;;;;;5033817;28;20572;-77
2024/01/26 06:20:06;;;;;;;4.43;3.30;;;9.80;1.00;;;;;;5030483;28;20444;-77
2024/01/26 06:22:32;;;;;;;4.77;3.67;;;9.90;1.00;;;;;;5036979;28;20171;-77
2024/01/26 06:24:57;;;;;;;7.63;2.97;;;9.90;1.00;;;;;;5039047;28;20964;-78
2024/01/26 06:27:23;;;;;;;4.03;3.30;;;9.80;1.00;;;;;;5041543;28;20173;-77
2024/01/26 06:29:48;;;;;;;4.87;2.77;;;9.90;1.00;;;;;;5042326;28;20209;-77
2024/01/26 06:32:14;;;;;;;5.33;2.93;;;9.80;1.00;;;;;;5040663;28;20518;-77
2024/01/26 06:34:41;;;;;;;6.43;3.37;;;9.80;1.00;;;;;;5052356;28;20181;-76
2024/01/26 06:37:07;;;;;;;5.70;2.93;;;9.90;1.00;;;;;;5034214;28;20524;-77
2024/01/26 06:39:34;;;;;;;6.00;3.10;;;;;;;;;;5038095;28;20419;-77
2024/01/26 06:41:59;;;;;;;6.50;3.50;;;9.90;1.00;;;;;;5043443;28;20404;-78
2024/01/26 06:44:25;;;;;;;3.40;2.83;;;9.90;1.00;;;;;;5046512;28;20763;-80
2024/01/26 06:46:50;;;;;;;4.20;3.23;;;9.80;1.00;;;;;;5037058;28;20185;-73
2024/01/26 06:49:16;;;;;;;5.27;3.10;;;9.80;1.00;;;;;;5031739;28;20209;-78
2024/01/26 06:51:41;;;;;;;10.70;3.43;;;9.80;1.00;;;;;;5048742;28;20193;-79
2024/01/26 06:54:06;;;;;;;6.67;3.30;;;9.80;1.00;;;;;;5047370;28;20189;-78
2024/01/26 06:56:32;;;;;;;4.93;3.33;;;9.90;1.00;;;;;;5035922;28;20184;-78
2024/01/26 06:58:57;;;;;;;9.80;3.63;;;9.80;1.00;;;;;;5031557;28;20698;-77
2024/01/26 07:01:23;;;;;;;5.03;3.03;;;9.80;1.00;;;;;;5046948;28;20201;-75
2024/01/26 07:03:48;;;;;;;4.83;3.10;;;9.90;1.00;;;;;;5039235;28;20180;-75
2024/01/26 07:06:14;;;;;;;5.77;3.40;;;9.90;1.00;;;;;;5049012;28;20178;-75
2024/01/26 07:08:40;;;;;;;10.90;3.60;;;9.90;1.00;;;;;;5046571;28;20570;-78
2024/01/26 07:11:06;;;;;;;6.90;4.00;;;9.90;1.00;;;;;;5043623;28;20260;-75
2024/01/26 07:13:31;;;;;;;3.53;3.07;;;10.00;1.00;;;;;;5042604;28;20186;-78
2024/01/26 07:15:57;;;;;;;6.40;3.80;;;9.90;1.00;;;;;;5040877;28;20188;-75
2024/01/26 07:18:22;;;;;;;4.57;3.33;;;9.90;1.00;;;;;;5034141;28;20200;-79
2024/01/26 07:20:48;;;;;;;4.43;3.20;;;9.90;1.00;;;;;;5040822;28;20225;-75
2024/01/26 07:23:13;;;;;;;5.00;3.50;;;9.90;1.00;;;;;;5042660;28;20177;-76
2024/01/26 07:25:39;;;;;;;6.90;3.87;;;9.90;1.00;;;;;;5040344;28;20231;-76
2024/01/26 07:28:08;;;;;;;4.60;3.40;;;10.00;1.00;;;;;;5040621;28;20225;-78
2024/01/26 07:30:33;;;;;;;6.37;3.87;;;10.00;1.00;;;;;;5039283;28;20197;-75
2024/01/26 07:32:59;;;;;;;4.97;3.30;;;10.00;1.00;;;;;;5036985;28;20420;-77
2024/01/26 07:35:25;;;;;;;5.00;3.80;;;11.50;1.00;;;;;;5040849;28;20254;-77
2024/01/26 07:37:50;;;;;;;5.47;3.30;;;10.00;1.00;;;;;;5033565;28;20420;-76
2024/01/26 07:40:16;;;;;;;3.80;2.83;;;10.50;1.00;;;;;;5047992;28;20201;-77
2024/01/26 07:42:41;;;;;;;3.90;3.03;;;10.70;1.00;;;;;;5035243;28;20174;-77
2024/01/26 07:45:07;;;;;;;3.97;2.83;;;11.00;1.00;;;;;;5024827;28;20194;-76
2024/01/26 07:47:35;;;;;;;3.87;3.10;;;11.00;1.00;;;;;;5046699;28;20257;-77
2024/01/26 07:50:02;;;;;;;4.17;3.17;;;10.40;1.00;;;;;;5054446;28;20197;-77
2024/01/26 07:52:28;;;;;;;4.20;3.10;;;10.40;1.00;;;;;;5044029;28;20459;-78
2024/01/26 07:54:54;;;;;;;5.13;3.27;;;10.30;1.00;;;;;;5046857;28;20489;-74
2024/01/26 07:57:21;;;;;;;4.83;3.00;;;8.20;1.00;;;;;;5046512;28;20275;-78
2024/01/26 07:59:48;;;;;;;6.10;3.40;;;10.20;1.00;;;;;;5049351;28;20438;-77
2024/01/26 08:02:13;;;;;;;6.30;3.33;;;10.40;1.00;;;;;;5039327;28;20416;-73
2024/01/26 08:04:39;;;;;;;5.47;2.80;;;10.20;1.00;;;;;;5048553;28;20454;-77
2024/01/26 08:07:04;;;;;;;6.50;3.00;;;10.20;1.00;;;;;;5037905;28;20197;-79
2024/01/26 08:09:30;;;;;;;4.47;3.33;;;10.20;1.00;;;;;;5039255;28;20205;-77
2024/01/26 08:11:55;;;;;;;4.67;2.60;;;10.20;1.00;;;;;;5051505;28;20543;-76
2024/01/26 08:14:20;;;;;;;10.60;3.23;;;10.20;1.00;;;;;;5047242;28;20178;-77
2024/01/26 08:16:46;;;;;;;4.77;2.97;;;10.20;1.00;;;;;;5053123;28;20181;-78
2024/01/26 08:19:12;;;;;;;5.70;3.00;;;9.30;1.00;;;;;;5039811;28;20244;-77
2024/01/26 08:21:37;;;;;;;5.57;3.20;;;;;;;;;;5046788;28;20208;-79
2024/01/26 08:24:03;;;;;;;5.30;2.83;;;10.30;1.00;;;;;;5062756;28;20216;-79
2024/01/26 08:26:30;;;;;;;4.07;3.10;;;;;;;;;;5046453;28;20266;-77
2024/01/26 08:28:56;;;;;;;3.67;2.70;;;;;;;;;;5053804;28;20206;-78
2024/01/26 08:31:21;;;;;;;5.43;2.90;;;10.40;1.00;;;;;;5059953;28;20438;-79
2024/01/26 08:33:47;;;;;;;6.50;3.00;;;10.30;1.00;;;;;;5053170;28;20428;-76
2024/01/26 08:36:13;;;;;;;4.40;2.60;;;;;;;;;;5048221;28;20683;-77
2024/01/26 08:38:38;;;;;;;4.63;3.00;;;10.50;1.00;;;;;;5049854;28;20184;-78
2024/01/26 08:41:07;;;;;;;5.53;2.70;;;10.50;1.00;;;;;;5054927;28;20457;-77
2024/01/26 08:43:33;;;;;;;3.10;2.43;;;;;;;;;;5052726;28;20245;-76
2024/01/26 08:45:59;;;;;;;3.30;2.63;;;10.70;1.00;;;;;;5050587;28;20452;-77
2024/01/26 08:48:25;;;;;;;6.50;2.50;;;10.70;1.00;;;;;;5043410;28;20460;-79
2024/01/26 08:50:50;;;;;;;6.23;2.60;;;10.80;1.00;;;;;;5048380;28;20197;-81
2024/01/26 08:53:16;;;;;;;3.20;2.47;;;;;;;;;;5057258;28;20189;-78
2024/01/26 08:55:42;;;;;;;3.23;2.50;;;12.40;1.00;;;;;;5061359;28;20189;-74
2024/01/26 08:58:07;;;;;;;5.07;2.60;;;10.80;1.00;;;;;;5051483;28;20502;-73
2024/01/26 09:00:34;;;;;;;6.90;2.40;;;10.80;1.00;;;;;;5047469;28;20210;-75
2024/01/26 09:03:00;;;;;;;5.10;2.80;;;10.80;1.00;;;;;;5048811;28;20230;-74
2024/01/26 09:05:25;;;;;;;2.80;2.10;;;10.80;1.00;;;;;;5047227;28;20500;-76
2024/01/26 09:07:51;;;;;;;2.87;2.20;;;10.70;1.00;;;;;;5039722;28;20196;-78
2024/01/26 09:10:19;;;;;;;3.10;2.50;;;10.80;1.00;;;;;;5038924;28;20204;-78
2024/01/26 09:12:44;;;;;;;3.00;2.40;;;10.80;1.00;;;;;;5040750;28;20424;-76
2024/01/26 09:15:10;;;;;;;2.37;2.13;;;10.70;1.00;;;;;;5032568;28;20455;-83
2024/01/26 09:17:36;;;;;;;5.70;2.53;;;10.70;1.00;;;;;;5040587;28;20487;-76
2024/01/26 09:20:03;;;;;;;2.47;2.07;;;10.70;1.00;;;;;;5041887;28;20436;-77
2024/01/26 09:22:28;;;;;;;4.40;2.47;;;10.70;1.00;;;;;;5040612;28;20435;-78
2024/01/26 09:24:54;;;;;;;3.73;2.30;;;10.80;1.00;;;;;;5035069;28;20408;-76
2024/01/26 09:27:21;;;;;;;3.00;2.30;;;10.70;1.00;;;;;;5047893;28;20252;-79
2024/01/26 09:29:47;;;;;;;4.93;2.60;;;10.70;1.00;;;;;;5038256;28;20202;-76
2024/01/26 09:32:13;;;;;;;3.67;2.70;;;10.60;1.00;;;;;;5041861;28;20862;-77
2024/01/26 09:34:38;;;;;;;3.77;2.40;;;10.60;1.00;;;;;;5042526;28;20548;-76
2024/01/26 09:37:04;;;;;;;4.50;2.70;;;10.60;1.00;;;;;;5040717;28;20619;-75
2024/01/26 09:39:30;;;;;;;4.20;2.40;;;10.60;1.00;;;;;;5036563;28;20447;-74
2024/01/26 09:41:55;;;;;;;4.30;2.50;;;10.60;1.00;;;;;;5035850;28;20288;-74
2024/01/26 09:44:21;;;;;;;2.87;2.47;;;10.60;1.00;;;;;;5040346;28;20189;-78
2024/01/26 09:46:47;;;;;;;2.63;2.20;;;10.70;1.00;;;;;;5041054;28;20165;-75
2024/01/26 09:49:13;;;;;;;3.23;2.70;;;10.70;1.00;;;;;;5038079;28;21007;-75
2024/01/26 09:51:39;;;;;;;3.47;2.43;;;10.70;1.00;;;;;;5041080;28;20208;-79
2024/01/26 09:54:07;;;;;;;3.07;2.37;;;10.70;1.00;;;;;;5042036;28;20228;-77
2024/01/26 09:56:33;;;;;;;2.80;2.50;;;10.70;1.00;;;;;;5042402;28;20418;-75
2024/01/26 09:58:58;;;;;;;3.23;2.40;;;10.70;1.00;;;;;;5044391;28;20427;-75
2024/01/26 10:01:25;;;;;;;3.90;2.43;;;10.70;1.00;;;;;;5042138;28;20478;-76
2024/01/26 10:03:52;;;;;;;3.13;2.27;;;10.70;1.00;;;;;;5040794;28;20178;-80
2024/01/26 10:06:19;;;;;;;6.93;2.57;;;10.60;1.00;;;;;;5046107;28;20477;-78
2024/01/26 10:08:45;;;;;;;2.20;2.00;;;10.60;1.00;;;;;;5047242;28;20483;-77
2024/01/26 10:11:10;;;;;;;3.30;2.23;;;10.50;1.00;;;;;;5041893;28;20522;-79
2024/01/26 10:13:37;;;;;;;3.00;2.43;;;10.50;1.00;;;;;;5042004;28;20174;-78
2024/01/26 10:16:07;;;;;;;4.00;2.17;;;10.50;1.00;;;;;;5042152;28;20178;-76
2024/01/26 10:18:39;;;;;;;3.13;2.20;;;10.40;1.00;;;;;;5037204;28;20451;-75
2024/01/26 10:21:05;;;;;;;3.37;2.50;;;10.40;1.00;;;;;;5035781;28;20457;-78
2024/01/26 10:23:30;;;;;;;3.23;2.27;;;10.40;1.00;;;;;;5051866;28;20933;-75
2024/01/26 10:25:56;;;;;;;4.40;2.40;;;10.40;1.00;;;;;;5050604;28;20472;-76
2024/01/26 10:28:21;;;;;;;2.67;2.17;;;10.40;1.00;;;;;;5044677;28;20281;-76
2024/01/26 10:30:47;;;;;;;5.00;2.40;;;10.40;1.00;;;;;;5046754;28;20571;-77
2024/01/26 10:33:13;;;;;;;4.80;2.30;;;10.40;1.00;;;;;;5044499;28;20583;-79
2024/01/26 10:35:44;;;;;;;2.33;2.13;;;10.40;1.00;;;;;;5031847;28;20218;-76
2024/01/26 10:38:13;;;;;;;2.57;2.20;;;10.40;1.00;;;;;;5045629;28;20235;-77
2024/01/26 10:40:43;;;;;;;5.27;2.30;;;10.50;1.00;;;;;;5039979;28;20516;-76
2024/01/26 10:43:10;;;;;;;3.13;2.47;;;10.50;1.00;;;;;;5049101;28;20418;-76
2024/01/26 10:45:37;;;;;;;3.20;2.30;;;10.50;1.00;;;;;;5040794;28;20443;-78
2024/01/26 10:48:05;;;;;;;3.33;1.97;;;10.60;1.00;;;;;;5042889;28;20835;-78
2024/01/26 10:50:31;;;;;;;3.07;2.30;;;10.60;1.00;;;;;;5039557;28;20439;-79
2024/01/26 10:52:58;;;;;;;2.30;1.87;;;10.60;1.00;;;;;;5039788;28;20421;-74
2024/01/26 10:55:26;;;;;;;3.03;2.40;;;10.60;1.00;;;;;;5034227;28;20416;-80
2024/01/26 10:57:51;;;;;;;3.30;2.17;;;10.60;1.00;;;;;;5045862;28;20503;-75
2024/01/26 11:00:17;;;;;;;3.10;2.00;;;10.60;1.00;;;;;;5049703;28;20511;-76
2024/01/26 11:02:43;;;;;;;3.33;2.20;;;10.60;1.00;;;;;;5047957;28;20199;-77
2024/01/26 11:05:11;;;;;;;4.60;2.30;;;10.60;1.00;;;;;;5041041;28;20224;-76
2024/01/26 11:07:37;;;;;;;7.53;2.47;;;10.60;1.00;;;;;;5034227;28;20776;-77
2024/01/26 11:10:06;;;;;;;4.57;2.30;;;10.50;1.00;;;;;;5043618;28;20828;-77
2024/01/26 11:12:34;;;;;;;3.50;2.47;;;10.50;1.00;;;;;;5042841;28;20436;-75
2024/01/26 11:15:06;;;;;;;5.30;2.20;;;10.50;1.00;;;;;;5042343;28;20439;-77
2024/01/26 11:17:51;;;;;;;3.80;1.93;;;10.50;1.00;;;;;;5044227;28;20420;-82
2024/01/26 11:20:25;;;;;;;3.97;2.13;;;10.60;1.00;;;;;;5030494;28;20428;-77
2024/01/26 11:23:11;;;;;;;2.50;2.20;;;10.60;1.00;;;;;;5034114;28;20411;-75
2024/01/26 11:25:45;;;;;;;5.20;2.30;;;10.60;1.00;;;;;;5040405;28;20455;-78
2024/01/26 11:28:14;;;;;;;8.00;2.60;;;11.00;1.00;;;;;;5048798;28;20981;-78
2024/01/26 11:30:40;;;;;;;4.83;2.27;;;10.60;1.00;;;;;;5042648;28;20499;-76
2024/01/26 11:33:21;;;;;;;3.00;2.47;;;10.70;1.00;;;;;;5033659;28;20473;-77
2024/01/26 11:35:47;;;;;;;3.63;2.53;;;10.70;1.00;;;;;;5042541;28;20173;-77
2024/01/26 11:38:13;;;;;;;3.33;2.90;;;;;;;;;;5042396;28;20466;-76
2024/01/26 11:40:40;;;;;;;3.67;3.07;;;10.70;1.00;;;;;;5033893;28;20780;-77
2024/01/26 11:43:05;;;;;;;2.30;2.10;;;10.80;1.00;;;;;;5038344;28;20431;-75
2024/01/26 11:45:51;;;;;;;2.93;2.47;;;10.80;1.00;;;;;;5037718;28;20443;-76
2024/01/26 11:48:17;;;;;;;5.43;2.57;;;10.70;1.00;;;;;;5042598;28;20289;-79
2024/01/26 11:50:47;;;;;;;3.97;2.20;;;10.70;1.00;;;;;;5041118;28;20436;-77
2024/01/26 11:53:17;;;;;;;3.40;2.33;;;10.70;1.00;;;;;;5044688;28;20235;-76
2024/01/26 11:55:43;;;;;;;4.00;2.80;;;10.50;1.00;;;;;;5042634;28;20510;-75
2024/01/26 11:58:11;;;;;;;2.57;2.17;;;10.70;1.00;;;;;;5046192;28;20416;-75
2024/01/26 12:00:37;;;;;;;4.73;2.40;;;10.70;1.00;;;;;;5047217;28;20474;-79
2024/01/26 12:03:06;;;;;;;3.63;2.40;;;10.70;1.00;;;;;;5042240;28;20432;-75
2024/01/26 12:05:36;;;;;;;7.83;2.50;;;10.80;1.00;;;;;;5040405;28;20434;-75
2024/01/26 12:08:04;;;;;;;4.73;2.70;;;10.80;1.00;;;;;;5044056;28;20420;-79
2024/01/26 12:10:33;;;;;;;4.90;2.67;;;10.80;1.00;;;;;;5047315;28;20435;-75
2024/01/26 12:12:59;;;;;;;3.50;2.70;;;10.80;1.00;;;;;;5049706;28;20423;-79
2024/01/26 12:15:29;;;;;;;3.20;2.70;;;10.80;1.00;;;;;;5045972;28;20478;-76
2024/01/26 12:17:58;;;;;;;2.90;2.53;;;10.90;1.00;;;;;;5038179;28;20548;-75
2024/01/26 12:20:24;;;;;;;5.57;2.90;;;11.00;1.00;;;;;;5040540;28;20463;-76
2024/01/26 12:22:50;;;;;;;3.80;2.53;;;11.00;1.00;;;;;;5041741;28;20467;-78
2024/01/26 12:25:16;;;;;;;3.10;2.80;;;11.00;1.00;;;;;;5036017;28;20174;-75
2024/01/26 12:27:42;;;;;;;3.97;2.60;;;11.00;1.00;;;;;;5040232;28;20933;-76
2024/01/26 12:30:11;;;;;;;9.73;2.50;;;11.00;1.00;;;;;;5051870;28;20219;-79
2024/01/26 12:32:38;;;;;;;3.80;2.73;;;11.00;1.00;;;;;;5036987;28;20447;-76
2024/01/26 12:35:04;;;;;;;3.70;2.60;;;11.10;1.00;;;;;;5036634;28;20527;-77
2024/01/26 12:37:31;;;;;;;2.70;2.40;;;11.10;1.00;;;;;;5038799;28;20416;-83
2024/01/26 12:39:56;;;;;;;4.40;2.70;;;11.10;1.00;;;;;;5042637;28;20897;-76
2024/01/26 12:42:22;;;;;;;3.87;2.30;;;11.10;1.00;;;;;;5049286;28;20426;-77
2024/01/26 12:44:47;;;;;;;2.83;2.30;;;11.10;1.00;;;;;;5040315;28;20188;-73
2024/01/26 12:47:13;;;;;;;5.43;2.60;;;11.00;1.00;;;;;;5038486;28;20182;-76
2024/01/26 12:49:38;;;;;;;3.20;2.20;;;11.10;1.00;;;;;;5037211;28;20212;-75
2024/01/26 12:52:04;;;;;;;4.20;2.40;;;11.00;1.00;;;;;;5034448;28;20176;-75